createdAt,value
2019-05-11T00:00:38.207Z,1.90
2019-05-11T00:03:06.699Z,1.95
2019-05-11T00:05:35.216Z,1.70
2019-05-11T00:08:03.751Z,1.77
2019-05-11T00:10:32.224Z,1.70
2019-05-11T00:13:00.685Z,1.45
2019-05-11T00:15:31.985Z,1.67
2019-05-11T00:18:00.478Z,1.27
2019-05-11T00:20:28.908Z,1.30
2019-05-11T00:22:57.373Z,1.30
2019-05-11T00:25:25.867Z,1.52
2019-05-11T00:27:54.295Z,1.30
2019-05-11T00:30:22.883Z,1.25
2019-05-11T00:32:51.338Z,1.45
2019-05-11T00:35:19.776Z,1.60
2019-05-11T00:37:48.192Z,1.32
2019-05-11T00:40:16.788Z,1.30
2019-05-11T00:42:45.207Z,1.60
2019-05-11T00:45:13.876Z,1.40
2019-05-11T00:47:42.331Z,1.30
2019-05-11T00:50:11.689Z,1.70
2019-05-11T00:52:40.159Z,1.40
2019-05-11T00:55:08.725Z,1.70
2019-05-11T00:57:37.155Z,1.45
2019-05-11T01:00:07.810Z,1.40
2019-05-11T01:02:36.293Z,1.70
2019-05-11T01:05:07.124Z,1.62
2019-05-11T01:07:35.587Z,1.85
2019-05-11T01:10:06.529Z,1.62
2019-05-11T01:12:35.020Z,1.70
2019-05-11T01:15:04.274Z,1.20
2019-05-11T01:17:32.741Z,1.70
2019-05-11T01:20:01.208Z,1.60
2019-05-11T01:22:29.735Z,1.30
2019-05-11T01:24:58.242Z,1.85
2019-05-11T01:27:26.695Z,1.72
2019-05-11T01:29:55.181Z,1.98
2019-05-11T01:32:23.625Z,1.60
2019-05-11T01:34:52.044Z,1.60
2019-05-11T01:37:20.556Z,1.80
2019-05-11T01:39:49.145Z,1.70
2019-05-11T01:42:17.649Z,1.70
2019-05-11T01:44:46.085Z,1.65
2019-05-11T01:47:14.514Z,1.70
2019-05-11T01:49:43.069Z,2.40
2019-05-11T01:52:11.493Z,1.85
2019-05-11T01:54:39.961Z,2.35
2019-05-11T01:57:08.389Z,1.77
2019-05-11T01:59:36.846Z,1.95
2019-05-11T02:02:05.622Z,2.30
2019-05-11T02:04:34.116Z,2.17
2019-05-11T02:07:02.636Z,2.42
2019-05-11T02:09:31.058Z,2.10
2019-05-11T02:11:59.484Z,2.45
2019-05-11T02:14:27.932Z,2.20
2019-05-11T02:16:56.362Z,2.20
2019-05-11T02:19:24.814Z,1.70
2019-05-11T02:21:53.569Z,1.77
2019-05-11T02:24:22.015Z,1.57
2019-05-11T02:26:50.429Z,1.60
2019-05-11T02:29:18.883Z,1.80
2019-05-11T02:31:47.396Z,1.82
2019-05-11T02:34:15.820Z,1.50
2019-05-11T02:36:44.288Z,1.67
2019-05-11T02:39:12.712Z,1.42
2019-05-11T02:41:41.127Z,1.60
2019-05-11T02:44:09.716Z,1.60
2019-05-11T02:46:38.146Z,1.60
2019-05-11T02:49:06.644Z,1.50
2019-05-11T02:51:35.403Z,1.50
2019-05-11T02:54:04.536Z,1.20
2019-05-11T02:56:32.949Z,1.10
2019-05-11T02:59:01.497Z,0.90
2019-05-11T03:01:29.961Z,1.30
2019-05-11T03:03:58.415Z,1.10
2019-05-11T03:06:26.928Z,1.10
2019-05-11T03:08:55.433Z,1.10
2019-05-11T03:11:23.868Z,0.90
2019-05-11T03:13:52.318Z,0.90
2019-05-11T03:16:20.804Z,1.00
2019-05-11T03:18:49.324Z,1.20
2019-05-11T03:21:17.836Z,1.30
2019-05-11T03:23:46.288Z,1.10
2019-05-11T03:26:14.713Z,1.30
2019-05-11T03:28:43.223Z,1.00
2019-05-11T03:31:11.653Z,1.50
2019-05-11T03:33:40.098Z,1.20
2019-05-11T03:36:08.525Z,2.02
2019-05-11T03:38:37.044Z,2.75
2019-05-11T03:41:05.486Z,1.90
2019-05-11T03:43:33.895Z,1.50
2019-05-11T03:46:02.411Z,1.10
2019-05-11T03:48:30.926Z,1.10
2019-05-11T03:50:59.413Z,1.22
2019-05-11T03:53:27.856Z,1.20
2019-05-11T03:55:56.318Z,1.60
2019-05-11T03:58:26.058Z,1.30
2019-05-11T04:00:55.026Z,1.30
2019-05-11T04:03:23.472Z,1.07
2019-05-11T04:05:51.940Z,1.30
2019-05-11T04:08:20.361Z,1.40
2019-05-11T04:10:48.875Z,1.00
2019-05-11T04:13:17.326Z,1.10
2019-05-11T04:15:45.739Z,1.30
2019-05-11T04:18:14.151Z,1.20
2019-05-11T04:20:42.614Z,1.22
2019-05-11T04:23:11.094Z,1.85
2019-05-11T04:25:39.530Z,1.57
2019-05-11T04:28:08.011Z,1.62
2019-05-11T04:30:36.432Z,1.40
2019-05-11T04:33:04.869Z,1.77
2019-05-11T04:35:33.296Z,1.72
2019-05-11T04:38:01.720Z,1.40
2019-05-11T04:40:30.813Z,1.70
2019-05-11T04:42:59.294Z,1.35
2019-05-11T04:45:27.759Z,1.30
2019-05-11T04:47:56.184Z,1.12
2019-05-11T04:50:24.602Z,1.40
2019-05-11T04:52:53.110Z,1.52
2019-05-11T04:55:21.519Z,1.30
2019-05-11T04:57:49.962Z,1.62
2019-05-11T05:00:18.583Z,2.27
2019-05-11T05:02:46.981Z,2.30
2019-05-11T05:05:15.479Z,2.70
2019-05-11T05:07:48.905Z,1.32
2019-05-11T05:10:19.748Z,1.62
2019-05-11T05:12:50.390Z,1.35
2019-05-11T05:15:14.861Z,1.60
2019-05-11T05:17:43.461Z,1.35
2019-05-11T05:20:12.135Z,1.32
2019-05-11T05:22:40.560Z,1.40
2019-05-11T05:25:09.035Z,1.22
2019-05-11T05:27:37.852Z,1.17
2019-05-11T05:30:08.004Z,1.25
2019-05-11T05:32:36.616Z,1.20
2019-05-11T05:35:06.080Z,1.27
2019-05-11T05:37:34.555Z,1.00
2019-05-11T05:40:03.047Z,1.35
2019-05-11T05:42:31.552Z,1.25
2019-05-11T05:45:00.008Z,1.10
2019-05-11T05:47:28.429Z,1.20
2019-05-11T05:49:56.837Z,1.30
2019-05-11T05:52:25.301Z,1.25
2019-05-11T05:54:53.790Z,1.17
2019-05-11T05:57:22.214Z,1.20
2019-05-11T05:59:50.655Z,1.10
2019-05-11T06:02:19.068Z,1.10
2019-05-11T06:04:47.788Z,1.10
2019-05-11T06:07:16.281Z,1.25
2019-05-11T06:09:44.720Z,0.93
2019-05-11T06:12:13.154Z,1.20
2019-05-11T06:14:41.614Z,1.20
2019-05-11T06:17:10.056Z,0.90
2019-05-11T06:19:38.610Z,0.80
2019-05-11T06:22:07.100Z,1.20
2019-05-11T06:24:35.601Z,1.17
2019-05-11T06:27:04.152Z,1.07
2019-05-11T06:29:32.652Z,0.90
2019-05-11T06:32:02.390Z,1.32
2019-05-11T06:34:30.881Z,0.90
2019-05-11T06:36:59.358Z,1.10
2019-05-11T06:39:27.787Z,1.00
2019-05-11T06:41:56.204Z,0.78
2019-05-11T06:44:24.669Z,1.10
2019-05-11T06:46:53.223Z,1.10
2019-05-11T06:49:21.679Z,1.05
2019-05-11T06:51:50.230Z,1.10
2019-05-11T06:54:18.669Z,1.00
2019-05-11T06:56:47.153Z,1.00
2019-05-11T06:59:15.685Z,1.20
2019-05-11T07:01:44.109Z,1.00
2019-05-11T07:04:12.591Z,1.00
2019-05-11T07:06:41.010Z,0.88
2019-05-11T07:09:09.617Z,0.80
2019-05-11T07:11:38.041Z,0.90
2019-05-11T07:14:19.856Z,0.82
2019-05-11T07:16:36.714Z,0.93
2019-05-11T07:19:05.251Z,0.75
2019-05-11T07:21:33.691Z,0.88
2019-05-11T07:24:02.202Z,0.70
2019-05-11T07:26:30.653Z,0.80
2019-05-11T07:28:59.144Z,0.80
2019-05-11T07:31:27.677Z,0.90
2019-05-11T07:33:58.581Z,1.00
2019-05-11T07:36:28.270Z,2.42
2019-05-11T07:38:58.023Z,2.75
2019-05-11T07:41:28.089Z,3.77
2019-05-11T07:43:58.930Z,1.50
2019-05-11T07:46:28.852Z,4.75
2019-05-11T07:48:58.439Z,2.65
2019-05-11T07:51:28.716Z,2.30
2019-05-11T07:53:57.901Z,1.95
2019-05-11T07:56:28.579Z,3.40
2019-05-11T07:58:58.042Z,2.10
2019-05-11T08:01:28.245Z,1.65
2019-05-11T08:03:58.570Z,1.55
2019-05-11T08:06:28.558Z,3.90
2019-05-11T08:08:58.749Z,0.80
2019-05-11T08:11:30.797Z,0.82
2019-05-11T08:13:58.385Z,0.82
2019-05-11T08:16:28.468Z,0.68
2019-05-11T08:18:58.833Z,0.70
2019-05-11T08:21:28.390Z,0.50
2019-05-11T08:23:58.749Z,0.82
2019-05-11T08:26:28.267Z,0.55
2019-05-11T08:28:57.880Z,0.60
2019-05-11T08:31:27.876Z,0.53
2019-05-11T08:33:58.303Z,0.70
2019-05-11T08:36:28.877Z,0.60
2019-05-11T08:38:58.538Z,0.55
2019-05-11T08:41:28.124Z,0.47
2019-05-11T08:43:58.731Z,0.53
2019-05-11T08:46:27.908Z,0.50
2019-05-11T08:48:56.539Z,0.40
2019-05-11T08:51:24.975Z,0.45
2019-05-11T08:53:53.433Z,0.50
2019-05-11T08:56:21.940Z,0.55
2019-05-11T08:58:50.390Z,0.57
2019-05-11T09:01:18.894Z,0.40
2019-05-11T09:03:47.891Z,0.78
2019-05-11T09:06:17.914Z,0.45
2019-05-11T09:08:49.131Z,0.60
2019-05-11T09:11:19.018Z,0.62
2019-05-11T09:13:48.837Z,0.65
2019-05-11T09:16:19.025Z,5.30
2019-05-11T09:18:48.058Z,1.67
2019-05-11T09:21:18.783Z,3.47
2019-05-11T09:23:48.537Z,1.15
2019-05-11T09:26:18.100Z,0.90
2019-05-11T09:28:47.616Z,0.80
2019-05-11T09:31:18.612Z,0.90
2019-05-11T09:33:47.926Z,0.50
2019-05-11T09:36:18.127Z,0.62
2019-05-11T09:38:48.974Z,0.60
2019-05-11T09:41:18.121Z,0.70
2019-05-11T09:43:48.374Z,1.35
2019-05-11T09:46:18.769Z,1.35
2019-05-11T09:48:48.349Z,1.00
2019-05-11T09:51:18.510Z,3.08
2019-05-11T09:53:48.314Z,0.40
2019-05-11T09:56:18.382Z,0.42
2019-05-11T09:58:47.968Z,0.40
2019-05-11T10:01:18.270Z,0.55
2019-05-11T10:03:48.171Z,0.50
2019-05-11T10:06:19.098Z,0.62
2019-05-11T10:08:48.724Z,0.30
2019-05-11T10:11:19.018Z,0.50
2019-05-11T10:13:47.917Z,0.40
2019-05-11T10:16:17.921Z,0.60
2019-05-11T10:18:49.018Z,0.60
2019-05-11T10:21:18.750Z,0.40
2019-05-11T10:23:49.013Z,0.40
2019-05-11T10:26:18.681Z,0.80
2019-05-11T10:28:48.154Z,0.60
2019-05-11T10:31:18.084Z,0.62
2019-05-11T10:33:49.048Z,0.40
2019-05-11T10:36:18.952Z,0.53
2019-05-11T10:38:48.727Z,0.60
2019-05-11T10:41:18.041Z,0.60
2019-05-11T10:43:49.026Z,0.45
2019-05-11T10:46:22.943Z,0.70
2019-05-11T10:48:48.160Z,0.50
2019-05-11T10:51:18.444Z,0.60
2019-05-11T10:53:51.668Z,0.60
2019-05-11T10:56:17.994Z,0.68
2019-05-11T10:58:48.315Z,0.55
2019-05-11T11:01:18.175Z,0.50
2019-05-11T11:03:48.313Z,0.70
2019-05-11T11:06:18.903Z,0.57
2019-05-11T11:08:48.692Z,0.47
2019-05-11T11:11:18.483Z,0.50
2019-05-11T11:13:48.091Z,0.60
2019-05-11T11:16:32.761Z,0.62
2019-05-11T11:18:48.564Z,0.60
2019-05-11T11:21:22.365Z,0.90
2019-05-11T11:23:48.141Z,1.70
2019-05-11T11:26:18.446Z,3.15
2019-05-11T11:28:47.797Z,1.35
2019-05-11T11:31:18.780Z,4.87
2019-05-11T11:33:49.010Z,2.98
2019-05-11T11:36:17.878Z,2.52
2019-05-11T11:38:47.896Z,1.35
2019-05-11T11:41:18.491Z,1.40
2019-05-11T11:43:48.358Z,2.37
2019-05-11T11:46:18.744Z,1.90
2019-05-11T11:48:48.792Z,1.45
2019-05-11T11:51:18.705Z,3.10
2019-05-11T11:53:47.914Z,5.42
2019-05-11T11:56:18.882Z,3.22
2019-05-11T11:58:49.909Z,5.65
2019-05-11T12:01:19.056Z,21.42
2019-05-11T12:03:48.720Z,2.45
2019-05-11T12:06:18.285Z,3.55
2019-05-11T12:08:49.366Z,3.92
2019-05-11T12:11:18.756Z,3.87
2019-05-11T12:13:47.760Z,4.33
2019-05-11T12:16:17.973Z,18.67
2019-05-11T12:18:48.743Z,5.05
2019-05-11T12:21:18.582Z,4.95
2019-05-11T12:23:48.527Z,2.30
2019-05-11T12:26:17.827Z,4.20
2019-05-11T12:28:48.750Z,1.45
2019-05-11T12:31:18.459Z,0.80
2019-05-11T12:33:48.348Z,2.92
2019-05-11T12:36:18.772Z,1.25
2019-05-11T12:38:48.884Z,1.80
2019-05-11T12:41:19.099Z,1.10
2019-05-11T12:43:48.940Z,1.80
2019-05-11T12:46:18.881Z,1.40
2019-05-11T12:48:48.520Z,2.70
2019-05-11T12:51:18.660Z,2.27
2019-05-11T12:53:47.777Z,1.67
2019-05-11T12:56:18.705Z,1.55
2019-05-11T12:58:48.918Z,2.15
2019-05-11T13:01:18.834Z,1.25
2019-05-11T13:03:49.280Z,1.77
2019-05-11T13:06:19.136Z,0.50
2019-05-11T13:08:48.330Z,1.95
2019-05-11T13:11:18.744Z,2.45
2019-05-11T13:13:48.357Z,1.80
2019-05-11T13:16:18.404Z,0.75
2019-05-11T13:18:48.719Z,0.75
2019-05-11T13:21:18.328Z,1.05
2019-05-11T13:23:48.818Z,0.57
2019-05-11T13:26:17.966Z,0.75
2019-05-11T13:28:48.344Z,0.40
2019-05-11T13:31:18.630Z,0.62
2019-05-11T13:33:48.202Z,1.50
2019-05-11T13:36:18.639Z,5.75
2019-05-11T13:38:48.284Z,6.58
2019-05-11T13:41:18.766Z,5.62
2019-05-11T13:43:48.552Z,8.50
2019-05-11T13:46:18.002Z,7.60
2019-05-11T13:48:47.694Z,7.78
2019-05-11T13:51:18.173Z,3.20
2019-05-11T13:53:48.137Z,3.25
2019-05-11T13:56:18.402Z,1.80
2019-05-11T13:58:48.797Z,0.80
2019-05-11T14:01:18.548Z,0.80
2019-05-11T14:03:48.336Z,0.60
2019-05-11T14:06:18.467Z,0.40
2019-05-11T14:08:48.328Z,0.53
2019-05-11T14:11:18.270Z,0.70
2019-05-11T14:13:48.088Z,0.40
2019-05-11T14:16:18.540Z,0.47
2019-05-11T14:18:48.787Z,0.60
2019-05-11T14:21:18.581Z,0.40
2019-05-11T14:23:48.393Z,0.30
2019-05-11T14:26:19.214Z,0.40
2019-05-11T14:28:48.180Z,0.40
2019-05-11T14:31:18.956Z,0.30
2019-05-11T14:33:48.859Z,0.45
2019-05-11T14:36:18.425Z,0.40
2019-05-11T14:38:48.808Z,0.30
2019-05-11T14:41:18.175Z,0.40
2019-05-11T14:43:48.940Z,0.30
2019-05-11T14:46:18.063Z,0.47
2019-05-11T14:48:48.080Z,0.30
2019-05-11T14:51:18.008Z,0.30
2019-05-11T14:53:48.107Z,0.20
2019-05-11T14:56:19.057Z,0.20
2019-05-11T14:58:49.300Z,0.20
2019-05-11T15:01:18.385Z,0.20
2019-05-11T15:03:48.605Z,0.28
2019-05-11T15:06:18.847Z,0.20
2019-05-11T15:08:47.946Z,0.20
2019-05-11T15:11:18.900Z,0.40
2019-05-11T15:13:48.830Z,0.20
2019-05-11T15:16:18.768Z,0.20
2019-05-11T15:18:48.496Z,0.20
2019-05-11T15:21:18.996Z,0.20
2019-05-11T15:23:47.755Z,0.20
2019-05-11T15:26:18.505Z,0.85
2019-05-11T15:28:48.702Z,1.10
2019-05-11T15:31:21.873Z,0.98
2019-05-11T15:33:48.905Z,2.40
2019-05-11T15:36:19.229Z,0.93
2019-05-11T15:38:48.160Z,0.80
2019-05-11T15:41:17.684Z,0.88
2019-05-11T15:43:47.925Z,0.45
2019-05-11T15:46:19.529Z,2.05
2019-05-11T15:48:56.733Z,0.90
2019-05-11T15:51:18.710Z,4.12
2019-05-11T15:53:50.081Z,2.75
2019-05-11T15:56:19.031Z,1.50
2019-05-11T15:58:48.544Z,3.80
2019-05-11T16:01:18.641Z,2.00
2019-05-11T16:03:49.648Z,1.90
2019-05-11T16:06:18.661Z,1.62
2019-05-11T16:08:47.235Z,1.22
2019-05-11T16:11:17.970Z,0.85
2019-05-11T16:13:48.231Z,1.70
2019-05-11T16:16:16.150Z,1.85
2019-05-11T16:18:44.582Z,1.60
2019-05-11T16:21:13.120Z,0.65
2019-05-11T16:23:41.555Z,0.62
2019-05-11T16:26:10.024Z,0.68
2019-05-11T16:28:38.569Z,0.57
2019-05-11T16:31:09.241Z,0.40
2019-05-11T16:33:37.320Z,0.50
2019-05-11T16:36:08.776Z,0.50
2019-05-11T16:38:37.990Z,0.45
2019-05-11T16:41:06.293Z,0.60
2019-05-11T16:43:34.760Z,0.40
2019-05-11T16:46:03.351Z,0.40
2019-05-11T16:48:31.863Z,0.40
2019-05-11T16:51:00.388Z,0.30
2019-05-11T16:53:28.892Z,0.57
2019-05-11T16:55:57.789Z,0.80
2019-05-11T16:58:27.789Z,0.70
2019-05-11T17:00:58.124Z,0.40
2019-05-11T17:03:27.895Z,0.50
2019-05-11T17:05:58.705Z,0.35
2019-05-11T17:08:27.683Z,0.40
2019-05-11T17:10:59.080Z,0.50
2019-05-11T17:13:27.993Z,0.40
2019-05-11T17:15:58.306Z,0.50
2019-05-11T17:18:28.309Z,0.40
2019-05-11T17:20:58.460Z,0.50
2019-05-11T17:23:30.744Z,0.40
2019-05-11T17:25:58.010Z,0.50
2019-05-11T17:28:26.516Z,0.40
2019-05-11T17:30:55.149Z,0.50
2019-05-11T17:33:23.616Z,0.80
2019-05-11T17:35:52.121Z,4.92
2019-05-11T17:38:20.666Z,4.42
2019-05-11T17:40:49.211Z,0.90
2019-05-11T17:43:18.248Z,0.60
2019-05-11T17:45:48.037Z,1.70
2019-05-11T17:48:17.869Z,1.05
2019-05-11T17:50:46.652Z,3.98
2019-05-11T17:53:15.080Z,2.47
2019-05-11T17:55:43.524Z,3.85
2019-05-11T17:58:12.134Z,1.30
2019-05-11T18:00:40.665Z,1.80
2019-05-11T18:03:11.207Z,1.50
2019-05-11T18:05:39.419Z,5.95
2019-05-11T18:08:08.726Z,4.30
2019-05-11T18:10:38.487Z,1.70
2019-05-11T18:13:07.058Z,4.10
2019-05-11T18:15:37.870Z,1.65
2019-05-11T18:18:05.929Z,1.77
2019-05-11T18:20:34.431Z,3.65
2019-05-11T18:23:02.931Z,2.72
2019-05-11T18:25:31.464Z,3.70
2019-05-11T18:27:59.880Z,2.30
2019-05-11T18:30:29.302Z,1.42
2019-05-11T18:32:59.390Z,22.95
2019-05-11T18:35:28.162Z,3.08
2019-05-11T18:37:56.575Z,2.58
2019-05-11T18:40:25.074Z,2.45
2019-05-11T18:42:53.535Z,6.62
2019-05-11T18:45:22.022Z,4.90
2019-05-11T18:47:50.446Z,1.98
2019-05-11T18:50:30.015Z,1.60
2019-05-11T18:52:49.368Z,1.15
2019-05-11T18:55:18.902Z,2.40
2019-05-11T18:57:49.019Z,0.70
2019-05-11T19:00:18.535Z,0.88
2019-05-11T19:02:49.373Z,0.70
2019-05-11T19:05:17.973Z,1.07
2019-05-11T19:07:48.214Z,1.05
2019-05-11T19:10:17.199Z,0.80
2019-05-11T19:12:48.429Z,0.75
2019-05-11T19:15:18.774Z,0.98
2019-05-11T19:17:48.888Z,1.20
2019-05-11T19:20:17.866Z,2.05
2019-05-11T19:22:46.535Z,1.87
2019-05-11T19:25:15.116Z,1.65
2019-05-11T19:27:43.649Z,1.42
2019-05-11T19:30:12.769Z,3.05
2019-05-11T19:32:41.230Z,1.62
2019-05-11T19:35:09.804Z,1.40
2019-05-11T19:37:39.142Z,3.62
2019-05-11T19:40:09.322Z,1.30
2019-05-11T19:42:55.893Z,1.52
2019-05-11T19:45:24.912Z,1.70
2019-05-11T19:47:53.396Z,1.80
2019-05-11T19:50:21.965Z,1.35
2019-05-11T19:52:50.464Z,1.22
2019-05-11T19:55:19.016Z,1.75
2019-05-11T19:57:48.268Z,1.40
2019-05-11T20:00:18.454Z,1.57
2019-05-11T20:02:47.067Z,1.60
2019-05-11T20:05:18.187Z,1.40
2019-05-11T20:07:48.310Z,2.00
2019-05-11T20:10:18.579Z,1.25
2019-05-11T20:12:48.322Z,1.70
2019-05-11T20:15:18.747Z,1.50
2019-05-11T20:17:48.611Z,1.42
2019-05-11T20:20:18.376Z,1.75
2019-05-11T20:22:48.346Z,1.77
2019-05-11T20:25:18.706Z,1.50
2019-05-11T20:27:48.243Z,1.50
2019-05-11T20:30:18.820Z,1.35
2019-05-11T20:32:48.818Z,1.35
2019-05-11T20:35:17.769Z,1.40
2019-05-11T20:37:46.201Z,1.40
2019-05-11T20:40:14.725Z,1.20
2019-05-11T20:42:43.219Z,1.70
2019-05-11T20:45:12.129Z,1.65
2019-05-11T20:47:41.505Z,1.98
2019-05-11T20:50:10.117Z,1.82
2019-05-11T20:52:39.880Z,2.30
2019-05-11T20:55:09.034Z,2.20
2019-05-11T20:57:39.453Z,2.15
2019-05-11T21:00:08.817Z,2.55
2019-05-11T21:02:38.235Z,2.58
2019-05-11T21:05:08.984Z,3.20
2019-05-11T21:07:38.869Z,2.20
2019-05-11T21:10:08.797Z,2.65
2019-05-11T21:12:38.607Z,2.65
2019-05-11T21:15:11.079Z,2.52
2019-05-11T21:17:39.548Z,2.65
2019-05-11T21:20:09.849Z,3.60
2019-05-11T21:22:40.564Z,2.98
2019-05-11T21:25:09.341Z,3.20
2019-05-11T21:27:38.527Z,5.17
2019-05-11T21:30:09.715Z,3.42
2019-05-11T21:32:39.214Z,3.30
2019-05-11T21:35:09.304Z,3.52
2019-05-11T21:37:39.063Z,3.40
2019-05-11T21:40:09.436Z,3.77
2019-05-11T21:42:39.392Z,4.25
2019-05-11T21:45:09.749Z,3.85
2019-05-11T21:47:39.126Z,3.55
2019-05-11T21:50:09.079Z,3.92
2019-05-11T21:52:38.563Z,3.83
2019-05-11T21:55:09.470Z,4.50
2019-05-11T21:57:38.089Z,4.40
2019-05-11T22:00:09.156Z,4.55
2019-05-11T22:02:38.546Z,5.30
2019-05-11T22:05:09.093Z,5.25
2019-05-11T22:07:38.724Z,5.10
2019-05-11T22:10:09.298Z,5.45
2019-05-11T22:12:38.688Z,5.55
2019-05-11T22:15:09.385Z,5.72
2019-05-11T22:17:39.332Z,5.40
2019-05-11T22:20:09.005Z,5.85
2019-05-11T22:22:38.968Z,6.62
2019-05-11T22:25:09.031Z,6.83
2019-05-11T22:27:38.918Z,6.28
2019-05-11T22:30:11.359Z,6.37
2019-05-11T22:32:39.876Z,7.10
2019-05-11T22:35:09.575Z,6.95
2019-05-11T22:37:39.059Z,7.33
2019-05-11T22:40:08.579Z,7.17
2019-05-11T22:42:37.489Z,7.08
2019-05-11T22:45:08.385Z,7.20
2019-05-11T22:47:39.330Z,6.83
2019-05-11T22:50:08.385Z,6.70
2019-05-11T22:52:39.796Z,7.55
2019-05-11T22:55:11.143Z,6.87
2019-05-11T22:57:38.183Z,7.60
2019-05-11T23:00:08.819Z,6.65
2019-05-11T23:02:38.017Z,7.97
2019-05-11T23:05:08.432Z,8.60
2019-05-11T23:07:41.432Z,7.95
2019-05-11T23:10:10.458Z,9.15
2019-05-11T23:12:39.022Z,7.95
2019-05-11T23:15:14.689Z,8.23
2019-05-11T23:17:43.281Z,9.15
2019-05-11T23:20:12.130Z,8.55
2019-05-11T23:22:57.974Z,7.95
2019-05-11T23:25:19.862Z,7.37
2019-05-11T23:27:48.909Z,8.83
2019-05-11T23:30:20.083Z,7.97
2019-05-11T23:32:49.394Z,7.92
2019-05-11T23:35:18.824Z,7.80
2019-05-11T23:37:49.615Z,8.73
2019-05-11T23:40:18.722Z,8.50
2019-05-11T23:42:48.950Z,8.73
2019-05-11T23:45:18.921Z,8.90
2019-05-11T23:47:48.734Z,8.55
2019-05-11T23:50:19.264Z,8.63
2019-05-11T23:52:50.290Z,8.35
2019-05-11T23:55:19.191Z,7.65
2019-05-11T23:57:48.814Z,7.30
